sensor_id;sensor_type;location;lat;lon;timestamp;temperature;humidity
17080;DHT22;8655;57.106;-2.088;2022-11-27T00:01:58;17.80;65.80
17080;DHT22;8655;57.106;-2.088;2022-11-27T00:04:23;17.80;65.10
17080;DHT22;8655;57.106;-2.088;2022-11-27T00:06:49;17.80;65.10
17080;DHT22;8655;57.106;-2.088;2022-11-27T00:09:15;17.80;65.10
17080;DHT22;8655;57.106;-2.088;2022-11-27T00:11:42;17.80;65.10
17080;DHT22;8655;57.106;-2.088;2022-11-27T00:14:12;17.80;65.10
17080;DHT22;8655;57.106;-2.088;2022-11-27T00:16:39;17.80;65.10
17080;DHT22;8655;57.106;-2.088;2022-11-27T00:19:05;17.80;65.10
17080;DHT22;8655;57.106;-2.088;2022-11-27T00:21:33;17.80;65.10
17080;DHT22;8655;57.106;-2.088;2022-11-27T00:24:01;17.80;65.10
17080;DHT22;8655;57.106;-2.088;2022-11-27T00:26:28;17.80;65.10
17080;DHT22;8655;57.106;-2.088;2022-11-27T00:28:54;17.80;65.10
17080;DHT22;8655;57.106;-2.088;2022-11-27T00:31:25;17.80;65.20
17080;DHT22;8655;57.106;-2.088;2022-11-27T00:34:00;17.80;65.20
17080;DHT22;8655;57.106;-2.088;2022-11-27T00:36:28;17.80;65.20
17080;DHT22;8655;57.106;-2.088;2022-11-27T00:38:54;17.80;65.10
17080;DHT22;8655;57.106;-2.088;2022-11-27T00:41:25;17.80;65.10
17080;DHT22;8655;57.106;-2.088;2022-11-27T00:43:52;17.80;65.20
17080;DHT22;8655;57.106;-2.088;2022-11-27T00:46:24;17.80;65.20
17080;DHT22;8655;57.106;-2.088;2022-11-27T00:48:50;17.80;65.20
17080;DHT22;8655;57.106;-2.088;2022-11-27T00:51:17;17.80;65.20
17080;DHT22;8655;57.106;-2.088;2022-11-27T00:53:44;17.80;65.20
17080;DHT22;8655;57.106;-2.088;2022-11-27T00:56:19;17.80;65.20
17080;DHT22;8655;57.106;-2.088;2022-11-27T00:58:46;17.80;65.30
17080;DHT22;8655;57.106;-2.088;2022-11-27T01:01:17;17.70;65.10
17080;DHT22;8655;57.106;-2.088;2022-11-27T01:03:44;17.70;65.20
17080;DHT22;8655;57.106;-2.088;2022-11-27T01:06:10;17.70;65.20
17080;DHT22;8655;57.106;-2.088;2022-11-27T01:08:36;17.70;65.20
17080;DHT22;8655;57.106;-2.088;2022-11-27T01:11:02;17.70;65.20
17080;DHT22;8655;57.106;-2.088;2022-11-27T01:13:30;17.70;65.20
17080;DHT22;8655;57.106;-2.088;2022-11-27T01:18:25;17.70;65.20
17080;DHT22;8655;57.106;-2.088;2022-11-27T01:20:54;17.70;65.30
17080;DHT22;8655;57.106;-2.088;2022-11-27T01:23:20;17.70;65.30
17080;DHT22;8655;57.106;-2.088;2022-11-27T01:25:46;17.70;65.30
17080;DHT22;8655;57.106;-2.088;2022-11-27T01:28:13;17.70;65.30
17080;DHT22;8655;57.106;-2.088;2022-11-27T01:30:38;17.70;65.30
17080;DHT22;8655;57.106;-2.088;2022-11-27T01:33:04;17.70;65.30
17080;DHT22;8655;57.106;-2.088;2022-11-27T01:35:30;17.70;65.30
17080;DHT22;8655;57.106;-2.088;2022-11-27T01:37:56;17.70;65.30
17080;DHT22;8655;57.106;-2.088;2022-11-27T01:40:22;17.70;65.30
17080;DHT22;8655;57.106;-2.088;2022-11-27T01:42:47;17.70;65.30
17080;DHT22;8655;57.106;-2.088;2022-11-27T01:45:15;17.70;65.30
17080;DHT22;8655;57.106;-2.088;2022-11-27T01:47:48;17.70;65.30
17080;DHT22;8655;57.106;-2.088;2022-11-27T01:50:24;17.70;65.30
17080;DHT22;8655;57.106;-2.088;2022-11-27T01:52:53;17.70;65.40
17080;DHT22;8655;57.106;-2.088;2022-11-27T01:55:41;17.70;65.30
17080;DHT22;8655;57.106;-2.088;2022-11-27T01:58:16;17.70;66.00
17080;DHT22;8655;57.106;-2.088;2022-11-27T02:00:43;17.70;65.40
17080;DHT22;8655;57.106;-2.088;2022-11-27T02:03:09;17.70;65.30
17080;DHT22;8655;57.106;-2.088;2022-11-27T02:05:34;17.70;65.40
17080;DHT22;8655;57.106;-2.088;2022-11-27T02:08:08;17.70;65.40
17080;DHT22;8655;57.106;-2.088;2022-11-27T02:13:19;17.70;65.40
17080;DHT22;8655;57.106;-2.088;2022-11-27T02:15:53;17.70;65.40
17080;DHT22;8655;57.106;-2.088;2022-11-27T02:18:49;17.70;65.40
17080;DHT22;8655;57.106;-2.088;2022-11-27T02:26:44;17.60;65.30
17080;DHT22;8655;57.106;-2.088;2022-11-27T02:29:18;17.60;65.30
17080;DHT22;8655;57.106;-2.088;2022-11-27T02:34:32;17.60;65.30
17080;DHT22;8655;57.106;-2.088;2022-11-27T02:42:26;17.60;65.30
17080;DHT22;8655;57.106;-2.088;2022-11-27T02:44:58;17.60;65.30
17080;DHT22;8655;57.106;-2.088;2022-11-27T02:47:27;17.60;65.30
17080;DHT22;8655;57.106;-2.088;2022-11-27T02:49:53;17.60;65.30
17080;DHT22;8655;57.106;-2.088;2022-11-27T02:52:23;17.60;65.30
17080;DHT22;8655;57.106;-2.088;2022-11-27T02:57:33;17.60;65.40
17080;DHT22;8655;57.106;-2.088;2022-11-27T03:00:00;17.60;65.40
17080;DHT22;8655;57.106;-2.088;2022-11-27T03:02:31;17.60;65.40
17080;DHT22;8655;57.106;-2.088;2022-11-27T03:04:59;17.60;65.40
17080;DHT22;8655;57.106;-2.088;2022-11-27T03:07:43;17.60;65.40
17080;DHT22;8655;57.106;-2.088;2022-11-27T03:10:22;17.60;66.10
17080;DHT22;8655;57.106;-2.088;2022-11-27T03:12:49;17.60;65.40
17080;DHT22;8655;57.106;-2.088;2022-11-27T03:15:16;17.60;65.40
17080;DHT22;8655;57.106;-2.088;2022-11-27T03:22:46;17.60;65.50
17080;DHT22;8655;57.106;-2.088;2022-11-27T03:25:12;17.60;65.40
17080;DHT22;8655;57.106;-2.088;2022-11-27T03:27:54;17.60;65.40
17080;DHT22;8655;57.106;-2.088;2022-11-27T03:30:21;17.60;65.40
17080;DHT22;8655;57.106;-2.088;2022-11-27T03:32:46;17.60;65.40
17080;DHT22;8655;57.106;-2.088;2022-11-27T03:35:15;17.60;65.40
17080;DHT22;8655;57.106;-2.088;2022-11-27T03:37:41;17.60;65.40
17080;DHT22;8655;57.106;-2.088;2022-11-27T03:40:07;17.60;65.40
17080;DHT22;8655;57.106;-2.088;2022-11-27T03:53:31;17.60;65.40
17080;DHT22;8655;57.106;-2.088;2022-11-27T03:56:06;17.60;65.50
17080;DHT22;8655;57.106;-2.088;2022-11-27T04:01:22;17.60;65.50
17080;DHT22;8655;57.106;-2.088;2022-11-27T04:03:49;17.60;65.50
17080;DHT22;8655;57.106;-2.088;2022-11-27T04:06:15;17.50;65.40
17080;DHT22;8655;57.106;-2.088;2022-11-27T04:08:41;17.50;65.40
17080;DHT22;8655;57.106;-2.088;2022-11-27T04:11:07;17.60;65.50
17080;DHT22;8655;57.106;-2.088;2022-11-27T04:13:33;17.60;65.50
17080;DHT22;8655;57.106;-2.088;2022-11-27T04:16:00;17.50;65.40
17080;DHT22;8655;57.106;-2.088;2022-11-27T04:18:26;17.50;65.40
17080;DHT22;8655;57.106;-2.088;2022-11-27T04:20:51;17.50;65.40
17080;DHT22;8655;57.106;-2.088;2022-11-27T04:23:17;17.60;65.50
17080;DHT22;8655;57.106;-2.088;2022-11-27T04:25:43;17.50;65.40
17080;DHT22;8655;57.106;-2.088;2022-11-27T04:28:09;17.50;65.40
17080;DHT22;8655;57.106;-2.088;2022-11-27T04:30:35;17.50;65.40
17080;DHT22;8655;57.106;-2.088;2022-11-27T04:33:00;17.60;65.50
17080;DHT22;8655;57.106;-2.088;2022-11-27T04:35:26;17.50;65.40
17080;DHT22;8655;57.106;-2.088;2022-11-27T04:37:52;17.50;65.40
17080;DHT22;8655;57.106;-2.088;2022-11-27T04:40:17;17.50;65.40
17080;DHT22;8655;57.106;-2.088;2022-11-27T04:42:43;17.50;65.40
17080;DHT22;8655;57.106;-2.088;2022-11-27T04:45:09;17.50;65.40
17080;DHT22;8655;57.106;-2.088;2022-11-27T04:47:35;17.50;65.40
17080;DHT22;8655;57.106;-2.088;2022-11-27T04:50:01;17.50;65.40
17080;DHT22;8655;57.106;-2.088;2022-11-27T04:52:26;17.50;65.40
17080;DHT22;8655;57.106;-2.088;2022-11-27T04:54:52;17.50;65.40
17080;DHT22;8655;57.106;-2.088;2022-11-27T04:57:17;17.50;65.40
17080;DHT22;8655;57.106;-2.088;2022-11-27T04:59:43;17.50;65.40
17080;DHT22;8655;57.106;-2.088;2022-11-27T05:02:09;17.50;65.40
17080;DHT22;8655;57.106;-2.088;2022-11-27T05:04:34;17.50;65.40
17080;DHT22;8655;57.106;-2.088;2022-11-27T05:07:00;17.50;65.40
17080;DHT22;8655;57.106;-2.088;2022-11-27T05:09:26;17.50;65.40
17080;DHT22;8655;57.106;-2.088;2022-11-27T05:11:51;17.50;65.40
17080;DHT22;8655;57.106;-2.088;2022-11-27T05:14:17;17.50;65.40
17080;DHT22;8655;57.106;-2.088;2022-11-27T05:19:12;17.50;65.40
17080;DHT22;8655;57.106;-2.088;2022-11-27T05:21:39;17.50;65.40
17080;DHT22;8655;57.106;-2.088;2022-11-27T05:24:05;17.50;65.40
17080;DHT22;8655;57.106;-2.088;2022-11-27T05:26:31;17.50;65.40
17080;DHT22;8655;57.106;-2.088;2022-11-27T05:28:56;17.50;65.40
17080;DHT22;8655;57.106;-2.088;2022-11-27T05:31:22;17.50;65.30
17080;DHT22;8655;57.106;-2.088;2022-11-27T05:33:48;17.50;65.40
17080;DHT22;8655;57.106;-2.088;2022-11-27T05:36:13;17.50;65.40
17080;DHT22;8655;57.106;-2.088;2022-11-27T05:38:39;17.50;65.40
17080;DHT22;8655;57.106;-2.088;2022-11-27T05:41:05;17.50;65.40
17080;DHT22;8655;57.106;-2.088;2022-11-27T05:43:31;17.50;65.40
17080;DHT22;8655;57.106;-2.088;2022-11-27T05:45:56;17.50;65.40
17080;DHT22;8655;57.106;-2.088;2022-11-27T05:48:22;17.40;65.30
17080;DHT22;8655;57.106;-2.088;2022-11-27T05:50:48;17.40;65.30
17080;DHT22;8655;57.106;-2.088;2022-11-27T05:53:13;17.40;65.30
17080;DHT22;8655;57.106;-2.088;2022-11-27T05:55:39;17.40;65.20
17080;DHT22;8655;57.106;-2.088;2022-11-27T05:58:05;17.40;65.30
17080;DHT22;8655;57.106;-2.088;2022-11-27T06:00:30;17.40;65.30
17080;DHT22;8655;57.106;-2.088;2022-11-27T06:02:56;17.40;65.30
17080;DHT22;8655;57.106;-2.088;2022-11-27T06:05:21;17.40;65.30
17080;DHT22;8655;57.106;-2.088;2022-11-27T06:07:47;17.40;65.30
17080;DHT22;8655;57.106;-2.088;2022-11-27T06:10:13;17.40;65.30
17080;DHT22;8655;57.106;-2.088;2022-11-27T06:12:39;17.40;65.30
17080;DHT22;8655;57.106;-2.088;2022-11-27T06:15:04;17.40;65.30
17080;DHT22;8655;57.106;-2.088;2022-11-27T06:17:30;17.40;65.30
17080;DHT22;8655;57.106;-2.088;2022-11-27T06:19:56;17.40;65.30
17080;DHT22;8655;57.106;-2.088;2022-11-27T06:22:22;17.40;65.30
17080;DHT22;8655;57.106;-2.088;2022-11-27T06:24:47;17.40;65.30
17080;DHT22;8655;57.106;-2.088;2022-11-27T06:27:13;17.40;65.30
17080;DHT22;8655;57.106;-2.088;2022-11-27T06:29:38;17.40;65.40
17080;DHT22;8655;57.106;-2.088;2022-11-27T06:32:04;17.40;65.40
17080;DHT22;8655;57.106;-2.088;2022-11-27T06:34:30;17.40;65.40
17080;DHT22;8655;57.106;-2.088;2022-11-27T06:36:56;17.50;65.60
17080;DHT22;8655;57.106;-2.088;2022-11-27T06:39:22;17.50;65.50
17080;DHT22;8655;57.106;-2.088;2022-11-27T06:41:47;17.50;65.60
17080;DHT22;8655;57.106;-2.088;2022-11-27T06:44:13;17.50;65.60
17080;DHT22;8655;57.106;-2.088;2022-11-27T06:46:39;17.60;65.70
17080;DHT22;8655;57.106;-2.088;2022-11-27T06:49:04;17.60;65.70
17080;DHT22;8655;57.106;-2.088;2022-11-27T06:51:31;17.60;65.70
17080;DHT22;8655;57.106;-2.088;2022-11-27T06:53:59;17.70;65.80
17080;DHT22;8655;57.106;-2.088;2022-11-27T06:56:27;17.70;65.80
17080;DHT22;8655;57.106;-2.088;2022-11-27T06:58:54;17.70;65.80
17080;DHT22;8655;57.106;-2.088;2022-11-27T07:01:22;17.80;66.00
17080;DHT22;8655;57.106;-2.088;2022-11-27T07:03:48;17.80;65.90
17080;DHT22;8655;57.106;-2.088;2022-11-27T07:06:16;17.90;65.90
17080;DHT22;8655;57.106;-2.088;2022-11-27T07:08:42;17.90;65.90
17080;DHT22;8655;57.106;-2.088;2022-11-27T07:11:16;17.90;65.90
17080;DHT22;8655;57.106;-2.088;2022-11-27T07:13:43;18.00;66.00
17080;DHT22;8655;57.106;-2.088;2022-11-27T07:16:10;18.00;66.00
17080;DHT22;8655;57.106;-2.088;2022-11-27T07:18:43;18.00;66.00
17080;DHT22;8655;57.106;-2.088;2022-11-27T07:21:09;18.00;66.00
17080;DHT22;8655;57.106;-2.088;2022-11-27T07:23:35;18.00;66.00
17080;DHT22;8655;57.106;-2.088;2022-11-27T07:26:09;18.10;66.10
17080;DHT22;8655;57.106;-2.088;2022-11-27T07:28:36;18.10;66.10
17080;DHT22;8655;57.106;-2.088;2022-11-27T07:31:02;18.10;66.10
17080;DHT22;8655;57.106;-2.088;2022-11-27T07:33:28;18.10;66.10
17080;DHT22;8655;57.106;-2.088;2022-11-27T07:36:05;18.10;66.10
17080;DHT22;8655;57.106;-2.088;2022-11-27T07:38:31;18.10;66.10
17080;DHT22;8655;57.106;-2.088;2022-11-27T07:41:04;18.10;66.10
17080;DHT22;8655;57.106;-2.088;2022-11-27T07:43:32;18.10;66.00
17080;DHT22;8655;57.106;-2.088;2022-11-27T07:46:01;18.20;66.10
17080;DHT22;8655;57.106;-2.088;2022-11-27T07:48:27;18.10;66.00
17080;DHT22;8655;57.106;-2.088;2022-11-27T07:50:52;18.10;66.00
17080;DHT22;8655;57.106;-2.088;2022-11-27T07:53:18;18.10;66.00
17080;DHT22;8655;57.106;-2.088;2022-11-27T07:55:44;18.10;66.10
17080;DHT22;8655;57.106;-2.088;2022-11-27T07:58:09;18.10;66.00
17080;DHT22;8655;57.106;-2.088;2022-11-27T08:00:35;18.10;66.00
17080;DHT22;8655;57.106;-2.088;2022-11-27T08:03:01;18.10;66.10
17080;DHT22;8655;57.106;-2.088;2022-11-27T08:05:28;18.10;66.00
17080;DHT22;8655;57.106;-2.088;2022-11-27T08:07:54;18.10;66.00
17080;DHT22;8655;57.106;-2.088;2022-11-27T08:10:20;18.10;66.10
17080;DHT22;8655;57.106;-2.088;2022-11-27T08:12:45;18.10;66.10
17080;DHT22;8655;57.106;-2.088;2022-11-27T08:15:11;18.10;66.10
17080;DHT22;8655;57.106;-2.088;2022-11-27T08:17:38;18.10;66.10
17080;DHT22;8655;57.106;-2.088;2022-11-27T08:20:05;18.10;66.10
17080;DHT22;8655;57.106;-2.088;2022-11-27T08:22:31;18.10;66.10
17080;DHT22;8655;57.106;-2.088;2022-11-27T08:24:56;18.10;66.10
17080;DHT22;8655;57.106;-2.088;2022-11-27T08:27:22;18.10;66.10
17080;DHT22;8655;57.106;-2.088;2022-11-27T08:29:48;18.00;66.00
17080;DHT22;8655;57.106;-2.088;2022-11-27T08:32:13;18.10;66.20
17080;DHT22;8655;57.106;-2.088;2022-11-27T08:34:39;18.00;66.10
17080;DHT22;8655;57.106;-2.088;2022-11-27T08:37:06;18.00;66.00
17080;DHT22;8655;57.106;-2.088;2022-11-27T08:39:31;18.00;66.00
17080;DHT22;8655;57.106;-2.088;2022-11-27T08:41:57;18.00;66.00
17080;DHT22;8655;57.106;-2.088;2022-11-27T08:44:23;18.00;66.00
17080;DHT22;8655;57.106;-2.088;2022-11-27T08:46:49;18.00;66.00
17080;DHT22;8655;57.106;-2.088;2022-11-27T08:49:15;18.00;66.00
17080;DHT22;8655;57.106;-2.088;2022-11-27T08:51:40;18.00;66.00
17080;DHT22;8655;57.106;-2.088;2022-11-27T08:54:06;18.00;66.00
17080;DHT22;8655;57.106;-2.088;2022-11-27T08:56:32;18.00;66.70
17080;DHT22;8655;57.106;-2.088;2022-11-27T08:58:57;18.00;66.00
17080;DHT22;8655;57.106;-2.088;2022-11-27T09:01:28;18.00;66.00
17080;DHT22;8655;57.106;-2.088;2022-11-27T09:03:54;18.00;66.00
17080;DHT22;8655;57.106;-2.088;2022-11-27T09:06:23;18.00;66.00
17080;DHT22;8655;57.106;-2.088;2022-11-27T09:08:49;18.00;66.00
17080;DHT22;8655;57.106;-2.088;2022-11-27T09:11:17;18.00;66.00
17080;DHT22;8655;57.106;-2.088;2022-11-27T09:13:44;18.00;65.90
17080;DHT22;8655;57.106;-2.088;2022-11-27T09:16:12;17.90;65.80
17080;DHT22;8655;57.106;-2.088;2022-11-27T09:18:39;17.90;65.80
17080;DHT22;8655;57.106;-2.088;2022-11-27T09:21:08;17.90;65.80
17080;DHT22;8655;57.106;-2.088;2022-11-27T09:23:34;17.90;65.80
17080;DHT22;8655;57.106;-2.088;2022-11-27T09:26:06;17.90;65.80
17080;DHT22;8655;57.106;-2.088;2022-11-27T09:28:34;17.90;65.80
17080;DHT22;8655;57.106;-2.088;2022-11-27T09:31:01;17.90;65.80
17080;DHT22;8655;57.106;-2.088;2022-11-27T09:33:29;17.90;65.80
17080;DHT22;8655;57.106;-2.088;2022-11-27T09:35:55;17.90;65.80
17080;DHT22;8655;57.106;-2.088;2022-11-27T09:38:21;17.90;65.80
17080;DHT22;8655;57.106;-2.088;2022-11-27T09:40:50;17.90;65.80
17080;DHT22;8655;57.106;-2.088;2022-11-27T09:43:19;17.90;65.80
17080;DHT22;8655;57.106;-2.088;2022-11-27T09:45:52;17.90;65.70
17080;DHT22;8655;57.106;-2.088;2022-11-27T09:48:39;17.90;65.80
17080;DHT22;8655;57.106;-2.088;2022-11-27T09:51:25;17.90;65.70
17080;DHT22;8655;57.106;-2.088;2022-11-27T09:54:02;17.90;65.80
17080;DHT22;8655;57.106;-2.088;2022-11-27T09:56:32;17.80;65.70
17080;DHT22;8655;57.106;-2.088;2022-11-27T09:58:59;17.80;65.70
17080;DHT22;8655;57.106;-2.088;2022-11-27T10:01:31;17.80;65.70
17080;DHT22;8655;57.106;-2.088;2022-11-27T10:04:00;17.80;65.70
17080;DHT22;8655;57.106;-2.088;2022-11-27T10:14:57;17.80;65.70
17080;DHT22;8655;57.106;-2.088;2022-11-27T10:25:42;17.80;65.60
17080;DHT22;8655;57.106;-2.088;2022-11-27T10:30:50;17.80;65.70
17080;DHT22;8655;57.106;-2.088;2022-11-27T10:33:24;17.70;65.50
17080;DHT22;8655;57.106;-2.088;2022-11-27T10:35:51;17.80;65.60
17080;DHT22;8655;57.106;-2.088;2022-11-27T10:38:23;17.80;65.60
17080;DHT22;8655;57.106;-2.088;2022-11-27T10:43:25;17.80;65.60
17080;DHT22;8655;57.106;-2.088;2022-11-27T10:45:54;17.70;65.50
17080;DHT22;8655;57.106;-2.088;2022-11-27T10:48:21;17.70;65.50
17080;DHT22;8655;57.106;-2.088;2022-11-27T10:50:48;17.70;66.20
17080;DHT22;8655;57.106;-2.088;2022-11-27T10:56:17;17.70;66.20
17080;DHT22;8655;57.106;-2.088;2022-11-27T11:01:26;17.80;65.60
17080;DHT22;8655;57.106;-2.088;2022-11-27T11:04:10;17.70;65.50
17080;DHT22;8655;57.106;-2.088;2022-11-27T11:06:44;17.70;65.50
17080;DHT22;8655;57.106;-2.088;2022-11-27T11:09:16;17.70;65.50
17080;DHT22;8655;57.106;-2.088;2022-11-27T11:11:43;17.70;65.50
17080;DHT22;8655;57.106;-2.088;2022-11-27T11:14:23;17.70;65.50
17080;DHT22;8655;57.106;-2.088;2022-11-27T11:16:50;17.70;65.50
17080;DHT22;8655;57.106;-2.088;2022-11-27T11:19:30;17.70;65.50
17080;DHT22;8655;57.106;-2.088;2022-11-27T11:21:57;17.70;65.50
17080;DHT22;8655;57.106;-2.088;2022-11-27T11:24:29;17.70;65.50
17080;DHT22;8655;57.106;-2.088;2022-11-27T11:27:00;17.70;65.50
17080;DHT22;8655;57.106;-2.088;2022-11-27T11:32:09;17.70;65.50
17080;DHT22;8655;57.106;-2.088;2022-11-27T11:34:45;17.70;65.50
17080;DHT22;8655;57.106;-2.088;2022-11-27T11:37:30;17.70;65.50
17080;DHT22;8655;57.106;-2.088;2022-11-27T11:40:19;17.70;65.40
17080;DHT22;8655;57.106;-2.088;2022-11-27T11:42:56;17.70;65.50
17080;DHT22;8655;57.106;-2.088;2022-11-27T11:45:25;17.70;65.40
17080;DHT22;8655;57.106;-2.088;2022-11-27T11:47:56;17.70;65.40
17080;DHT22;8655;57.106;-2.088;2022-11-27T11:53:35;17.70;65.50
17080;DHT22;8655;57.106;-2.088;2022-11-27T11:56:29;17.70;65.50
17080;DHT22;8655;57.106;-2.088;2022-11-27T11:58:58;17.70;65.40
17080;DHT22;8655;57.106;-2.088;2022-11-27T12:01:53;17.70;65.50
17080;DHT22;8655;57.106;-2.088;2022-11-27T12:05:10;17.70;65.40
17080;DHT22;8655;57.106;-2.088;2022-11-27T12:10:21;17.70;65.40
17080;DHT22;8655;57.106;-2.088;2022-11-27T12:15:45;17.70;65.40
17080;DHT22;8655;57.106;-2.088;2022-11-27T12:24:06;17.70;65.50
17080;DHT22;8655;57.106;-2.088;2022-11-27T12:27:00;17.70;65.50
17080;DHT22;8655;57.106;-2.088;2022-11-27T12:29:58;17.70;65.50
17080;DHT22;8655;57.106;-2.088;2022-11-27T12:43:51;17.70;65.70
17080;DHT22;8655;57.106;-2.088;2022-11-27T12:46:36;17.70;65.70
17080;DHT22;8655;57.106;-2.088;2022-11-27T12:49:17;17.70;65.60
17080;DHT22;8655;57.106;-2.088;2022-11-27T12:51:50;17.70;65.60
17080;DHT22;8655;57.106;-2.088;2022-11-27T12:54:58;17.70;65.60
17080;DHT22;8655;57.106;-2.088;2022-11-27T12:57:46;17.70;65.60
17080;DHT22;8655;57.106;-2.088;2022-11-27T13:00:19;17.70;65.50
17080;DHT22;8655;57.106;-2.088;2022-11-27T13:05:29;17.70;65.60
17080;DHT22;8655;57.106;-2.088;2022-11-27T13:08:08;17.70;65.50
17080;DHT22;8655;57.106;-2.088;2022-11-27T13:11:05;17.70;65.50
17080;DHT22;8655;57.106;-2.088;2022-11-27T13:13:38;17.70;65.50
17080;DHT22;8655;57.106;-2.088;2022-11-27T13:16:10;17.70;65.50
17080;DHT22;8655;57.106;-2.088;2022-11-27T13:21:31;17.80;65.60
17080;DHT22;8655;57.106;-2.088;2022-11-27T13:24:01;17.70;65.50
17080;DHT22;8655;57.106;-2.088;2022-11-27T13:29:27;17.70;65.50
17080;DHT22;8655;57.106;-2.088;2022-11-27T13:31:57;17.70;65.50
17080;DHT22;8655;57.106;-2.088;2022-11-27T13:34:27;17.70;65.50
17080;DHT22;8655;57.106;-2.088;2022-11-27T13:37:00;17.70;65.50
17080;DHT22;8655;57.106;-2.088;2022-11-27T13:39:29;17.70;65.50
17080;DHT22;8655;57.106;-2.088;2022-11-27T13:42:08;17.70;65.50
17080;DHT22;8655;57.106;-2.088;2022-11-27T13:44:44;17.70;65.50
17080;DHT22;8655;57.106;-2.088;2022-11-27T13:47:19;17.70;65.40
17080;DHT22;8655;57.106;-2.088;2022-11-27T13:50:04;17.70;65.40
17080;DHT22;8655;57.106;-2.088;2022-11-27T13:52:32;17.70;65.50
17080;DHT22;8655;57.106;-2.088;2022-11-27T13:55:00;17.70;65.50
17080;DHT22;8655;57.106;-2.088;2022-11-27T13:57:28;17.70;65.40
17080;DHT22;8655;57.106;-2.088;2022-11-27T14:00:06;17.70;65.40
17080;DHT22;8655;57.106;-2.088;2022-11-27T14:02:47;17.70;65.40
17080;DHT22;8655;57.106;-2.088;2022-11-27T14:05:15;17.70;65.40
17080;DHT22;8655;57.106;-2.088;2022-11-27T14:07:46;17.70;65.40
17080;DHT22;8655;57.106;-2.088;2022-11-27T14:12:55;17.70;65.40
17080;DHT22;8655;57.106;-2.088;2022-11-27T14:15:24;17.70;65.40
17080;DHT22;8655;57.106;-2.088;2022-11-27T14:17:53;17.70;65.40
17080;DHT22;8655;57.106;-2.088;2022-11-27T14:20:30;17.70;65.40
17080;DHT22;8655;57.106;-2.088;2022-11-27T14:22:58;17.70;65.40
17080;DHT22;8655;57.106;-2.088;2022-11-27T14:25:27;17.70;65.40
17080;DHT22;8655;57.106;-2.088;2022-11-27T14:30:44;17.70;65.30
17080;DHT22;8655;57.106;-2.088;2022-11-27T14:33:22;17.70;65.30
17080;DHT22;8655;57.106;-2.088;2022-11-27T14:35:51;17.70;65.30
17080;DHT22;8655;57.106;-2.088;2022-11-27T14:38:17;17.70;65.30
17080;DHT22;8655;57.106;-2.088;2022-11-27T14:40:43;17.70;65.30
17080;DHT22;8655;57.106;-2.088;2022-11-27T14:43:13;17.70;65.30
17080;DHT22;8655;57.106;-2.088;2022-11-27T14:45:48;17.70;65.30
17080;DHT22;8655;57.106;-2.088;2022-11-27T14:48:55;17.70;65.30
17080;DHT22;8655;57.106;-2.088;2022-11-27T14:51:22;17.70;65.30
17080;DHT22;8655;57.106;-2.088;2022-11-27T14:53:52;17.70;65.30
17080;DHT22;8655;57.106;-2.088;2022-11-27T14:56:18;17.70;65.30
17080;DHT22;8655;57.106;-2.088;2022-11-27T14:58:50;17.70;65.30
17080;DHT22;8655;57.106;-2.088;2022-11-27T15:01:37;17.70;65.30
17080;DHT22;8655;57.106;-2.088;2022-11-27T15:04:25;17.70;65.30
17080;DHT22;8655;57.106;-2.088;2022-11-27T15:06:51;17.70;65.30
17080;DHT22;8655;57.106;-2.088;2022-11-27T15:09:24;17.70;65.30
17080;DHT22;8655;57.106;-2.088;2022-11-27T15:11:59;17.70;65.20
17080;DHT22;8655;57.106;-2.088;2022-11-27T15:14:26;17.70;65.20
17080;DHT22;8655;57.106;-2.088;2022-11-27T15:16:54;17.70;65.20
17080;DHT22;8655;57.106;-2.088;2022-11-27T15:19:30;17.70;65.20
17080;DHT22;8655;57.106;-2.088;2022-11-27T15:21:56;17.60;65.10
17080;DHT22;8655;57.106;-2.088;2022-11-27T15:24:33;17.60;65.10
17080;DHT22;8655;57.106;-2.088;2022-11-27T15:27:15;17.60;65.10
17080;DHT22;8655;57.106;-2.088;2022-11-27T15:29:59;17.60;65.10
17080;DHT22;8655;57.106;-2.088;2022-11-27T15:32:32;17.60;65.10
17080;DHT22;8655;57.106;-2.088;2022-11-27T15:34:58;17.60;65.10
17080;DHT22;8655;57.106;-2.088;2022-11-27T15:37:28;17.60;65.10
17080;DHT22;8655;57.106;-2.088;2022-11-27T15:39:56;17.60;65.10
17080;DHT22;8655;57.106;-2.088;2022-11-27T15:42:22;17.60;65.10
17080;DHT22;8655;57.106;-2.088;2022-11-27T15:44:52;17.60;65.10
17080;DHT22;8655;57.106;-2.088;2022-11-27T15:47:37;17.60;65.10
17080;DHT22;8655;57.106;-2.088;2022-11-27T15:50:05;17.60;65.00
17080;DHT22;8655;57.106;-2.088;2022-11-27T15:52:31;17.60;65.10
17080;DHT22;8655;57.106;-2.088;2022-11-27T15:54:57;17.60;65.80
17080;DHT22;8655;57.106;-2.088;2022-11-27T15:57:23;17.60;65.10
17080;DHT22;8655;57.106;-2.088;2022-11-27T15:59:50;17.60;65.10
17080;DHT22;8655;57.106;-2.088;2022-11-27T16:02:16;17.60;65.10
17080;DHT22;8655;57.106;-2.088;2022-11-27T16:04:42;17.60;65.10
17080;DHT22;8655;57.106;-2.088;2022-11-27T16:07:09;17.60;65.00
17080;DHT22;8655;57.106;-2.088;2022-11-27T16:09:34;17.60;65.00
17080;DHT22;8655;57.106;-2.088;2022-11-27T16:12:04;17.60;65.00
17080;DHT22;8655;57.106;-2.088;2022-11-27T16:14:30;17.60;65.00
17080;DHT22;8655;57.106;-2.088;2022-11-27T16:16:55;17.60;65.00
17080;DHT22;8655;57.106;-2.088;2022-11-27T16:19:21;17.60;65.00
17080;DHT22;8655;57.106;-2.088;2022-11-27T16:21:47;17.60;65.00
17080;DHT22;8655;57.106;-2.088;2022-11-27T16:24:13;17.60;65.00
17080;DHT22;8655;57.106;-2.088;2022-11-27T16:26:40;17.60;65.00
17080;DHT22;8655;57.106;-2.088;2022-11-27T16:29:07;17.60;65.00
17080;DHT22;8655;57.106;-2.088;2022-11-27T16:31:33;17.60;65.00
17080;DHT22;8655;57.106;-2.088;2022-11-27T16:33:59;17.60;65.00
17080;DHT22;8655;57.106;-2.088;2022-11-27T16:36:26;17.50;64.90
17080;DHT22;8655;57.106;-2.088;2022-11-27T16:38:53;17.50;64.90
17080;DHT22;8655;57.106;-2.088;2022-11-27T16:41:19;17.50;64.90
17080;DHT22;8655;57.106;-2.088;2022-11-27T16:43:50;17.50;64.90
17080;DHT22;8655;57.106;-2.088;2022-11-27T16:46:18;17.50;64.90
17080;DHT22;8655;57.106;-2.088;2022-11-27T16:48:46;17.50;64.90
17080;DHT22;8655;57.106;-2.088;2022-11-27T16:51:16;17.50;64.90
17080;DHT22;8655;57.106;-2.088;2022-11-27T16:53:45;17.50;64.90
17080;DHT22;8655;57.106;-2.088;2022-11-27T16:56:12;17.50;64.90
17080;DHT22;8655;57.106;-2.088;2022-11-27T16:58:41;17.50;64.90
17080;DHT22;8655;57.106;-2.088;2022-11-27T17:01:09;17.50;64.90
17080;DHT22;8655;57.106;-2.088;2022-11-27T17:03:36;17.50;64.90
17080;DHT22;8655;57.106;-2.088;2022-11-27T17:06:19;17.50;64.90
17080;DHT22;8655;57.106;-2.088;2022-11-27T17:08:45;17.50;64.80
17080;DHT22;8655;57.106;-2.088;2022-11-27T17:11:16;17.50;64.90
17080;DHT22;8655;57.106;-2.088;2022-11-27T17:13:45;17.50;64.80
17080;DHT22;8655;57.106;-2.088;2022-11-27T17:16:11;17.50;64.80
17080;DHT22;8655;57.106;-2.088;2022-11-27T17:18:38;17.50;64.80
17080;DHT22;8655;57.106;-2.088;2022-11-27T17:21:10;17.50;64.80
17080;DHT22;8655;57.106;-2.088;2022-11-27T17:23:37;17.50;64.80
17080;DHT22;8655;57.106;-2.088;2022-11-27T17:26:11;17.50;64.80
17080;DHT22;8655;57.106;-2.088;2022-11-27T17:28:37;17.50;64.80
17080;DHT22;8655;57.106;-2.088;2022-11-27T17:31:11;17.50;64.80
17080;DHT22;8655;57.106;-2.088;2022-11-27T17:33:37;17.50;64.80
17080;DHT22;8655;57.106;-2.088;2022-11-27T17:36:03;17.50;64.80
17080;DHT22;8655;57.106;-2.088;2022-11-27T17:38:29;17.50;64.80